Airfield :
LOGIN :

Register | Disclaimer

   EN    FR    IT 

 










Legend :    VFR   Marginal VFR   IFR   Intensive IFR   Very Intensive IFR
Visi :
Ceiling :
>= 8 km
>= 3000ft
5 to 8 km
1000 to 3000 ft
1500m to 5 km
500 to 1000 ft
800 to 1500m
200 to 500 ft
< 800m
< 200 ft
Symbols :   Thunderstorms  Fog  Heavy snow  Heavy precipitations  Wind > 20 kt
SIGMETs :     Misc.  Thunderstorms  Icing  Turbulence  Mountain Waves  Volcanic Ashes






- Airport Elevation : 194 ft
- IATA code : IEG


EPZG - Zielona Gora Babimost

CURRENT METAR :
  • 181730Z 07004KT CAVOK 26/16 Q1012

EXPIRED METARs :
  • 181700Z 07006KT 040V100 CAVOK 27/15 Q1012
  • 181630Z 08007KT CAVOK 28/15 Q1013
  • 181600Z 08004KT 030V140 CAVOK 28/14 Q1013
  • 181530Z 07005KT 020V090 CAVOK 28/14 Q1013
  • 181500Z 07008KT CAVOK 27/14 Q1014
  • 181430Z 05006KT 020V090 CAVOK 27/15 Q1014
  • 181400Z VRB03KT CAVOK 27/14 Q1014
  • 181330Z 20008KT 150V230 CAVOK 28/14 Q1014

TAF TAF EPZG
Valid from the 18 at 18:00 until the 19 at 03:00 UTC


181730Z 1818/1903 17006KT CAVOK
TEMPO 1818/1824 VRB22G45KT 2000 +TSRA BKN050CB
BECMG 1900/1903 25010KT



MET'MAP, your aeronautical weather chart ! - Copyright ORBIFLY December 2007 - Disclaimer

ORBIFLY MET'MAP TEAM :

Programming & Development : Alexandra Zaïnal
Original concept : Baudouin d'Aumeries
Technical & hardware support : Manuel Goepfert
Assistance : Marc-Olivier Méhu




SOURCES & CREDITS :

   NOAA